Bomont, West Virginia
Current Conditions -  °F | °C
As of 5:06 PM on Friday 31 Oct 2014 (Local Time) from KCRW Reporting Station
Light Rain Light Rain  
Wind Chill: 46°   Ceiling: 2500
Heat Index: 46°   Visibility: 7mi
Dew Point: 41°   Wind: 0mph
Humidity: 83%   Direction: NA
Pressure: 29.86"   Gusts: NA
Location:  38.45°N, 81.24°W
Report Text: KCRW 312106Z 00000KT 7SM -RA BKN025 BKN036 OVC070 08/05 A2986 RMK AO2 P0000 T00780050
Loading
Personal Weather Stations






























Interactive Weather Map
Tropical Storm Tracking
New forecast layout! Learn more

10-Day Weather Forecast

Advertisements
Track Severe Weather on mobile